sensor_id;sensor_type;location;lat;lon;timestamp;temperature;humidity
42617;DHT22;28250;52.320;0.360;2023-04-03T00:02:11;1.90;99.90
42617;DHT22;28250;52.320;0.360;2023-04-03T00:04:36;1.90;99.90
42617;DHT22;28250;52.320;0.360;2023-04-03T00:07:02;1.80;99.90
42617;DHT22;28250;52.320;0.360;2023-04-03T00:09:28;1.80;99.90
42617;DHT22;28250;52.320;0.360;2023-04-03T00:11:54;1.70;99.90
42617;DHT22;28250;52.320;0.360;2023-04-03T00:14:20;1.80;99.90
42617;DHT22;28250;52.320;0.360;2023-04-03T00:16:46;1.80;99.90
42617;DHT22;28250;52.320;0.360;2023-04-03T00:19:12;1.80;99.90
42617;DHT22;28250;52.320;0.360;2023-04-03T00:21:38;1.70;99.90
42617;DHT22;28250;52.320;0.360;2023-04-03T00:24:04;1.70;99.90
42617;DHT22;28250;52.320;0.360;2023-04-03T00:26:30;1.70;99.90
42617;DHT22;28250;52.320;0.360;2023-04-03T00:28:56;1.60;99.90
42617;DHT22;28250;52.320;0.360;2023-04-03T00:31:22;1.60;99.90
42617;DHT22;28250;52.320;0.360;2023-04-03T00:33:48;1.60;99.90
42617;DHT22;28250;52.320;0.360;2023-04-03T00:36:14;1.60;99.90
42617;DHT22;28250;52.320;0.360;2023-04-03T00:38:40;1.60;99.90
42617;DHT22;28250;52.320;0.360;2023-04-03T00:41:06;1.60;99.90
42617;DHT22;28250;52.320;0.360;2023-04-03T00:43:32;1.60;99.90
42617;DHT22;28250;52.320;0.360;2023-04-03T00:45:58;1.60;99.90
42617;DHT22;28250;52.320;0.360;2023-04-03T00:48:29;1.60;99.90
42617;DHT22;28250;52.320;0.360;2023-04-03T00:50:57;1.50;99.90
42617;DHT22;28250;52.320;0.360;2023-04-03T00:53:34;1.50;99.90
42617;DHT22;28250;52.320;0.360;2023-04-03T00:56:05;1.40;99.90
42617;DHT22;28250;52.320;0.360;2023-04-03T00:58:33;1.40;99.90
42617;DHT22;28250;52.320;0.360;2023-04-03T01:01:07;1.40;99.90
42617;DHT22;28250;52.320;0.360;2023-04-03T01:03:34;1.40;99.90
42617;DHT22;28250;52.320;0.360;2023-04-03T01:06:02;1.40;99.90
42617;DHT22;28250;52.320;0.360;2023-04-03T01:08:28;1.30;99.90
42617;DHT22;28250;52.320;0.360;2023-04-03T01:10:55;1.30;99.90
42617;DHT22;28250;52.320;0.360;2023-04-03T01:13:25;1.20;99.90
42617;DHT22;28250;52.320;0.360;2023-04-03T01:15:53;1.10;99.90
42617;DHT22;28250;52.320;0.360;2023-04-03T01:18:20;0.90;99.90
42617;DHT22;28250;52.320;0.360;2023-04-03T01:26:07;0.90;99.90
42617;DHT22;28250;52.320;0.360;2023-04-03T01:28:35;0.80;99.90
42617;DHT22;28250;52.320;0.360;2023-04-03T01:33:40;0.90;99.90
42617;DHT22;28250;52.320;0.360;2023-04-03T01:36:07;0.90;99.90
42617;DHT22;28250;52.320;0.360;2023-04-03T01:38:34;0.90;99.90
42617;DHT22;28250;52.320;0.360;2023-04-03T01:41:00;0.90;99.90
42617;DHT22;28250;52.320;0.360;2023-04-03T01:43:27;0.90;99.90
42617;DHT22;28250;52.320;0.360;2023-04-03T01:45:52;0.80;99.90
42617;DHT22;28250;52.320;0.360;2023-04-03T01:48:20;0.70;99.90
42617;DHT22;28250;52.320;0.360;2023-04-03T01:50:46;0.80;99.90
42617;DHT22;28250;52.320;0.360;2023-04-03T01:53:13;0.80;99.90
42617;DHT22;28250;52.320;0.360;2023-04-03T01:55:39;0.80;99.90
42617;DHT22;28250;52.320;0.360;2023-04-03T01:58:05;0.70;99.90
42617;DHT22;28250;52.320;0.360;2023-04-03T02:00:31;0.70;99.90
42617;DHT22;28250;52.320;0.360;2023-04-03T02:02:57;0.50;99.90
42617;DHT22;28250;52.320;0.360;2023-04-03T02:05:25;0.50;99.90
42617;DHT22;28250;52.320;0.360;2023-04-03T02:07:51;0.50;99.90
42617;DHT22;28250;52.320;0.360;2023-04-03T02:10:17;0.60;99.90
42617;DHT22;28250;52.320;0.360;2023-04-03T02:12:42;0.50;99.90
42617;DHT22;28250;52.320;0.360;2023-04-03T02:15:09;0.50;99.90
42617;DHT22;28250;52.320;0.360;2023-04-03T02:17:35;0.40;99.90
42617;DHT22;28250;52.320;0.360;2023-04-03T02:20:02;0.30;99.90
42617;DHT22;28250;52.320;0.360;2023-04-03T02:22:28;0.30;99.90
42617;DHT22;28250;52.320;0.360;2023-04-03T02:24:54;0.30;99.90
42617;DHT22;28250;52.320;0.360;2023-04-03T02:27:20;0.40;99.90
42617;DHT22;28250;52.320;0.360;2023-04-03T02:29:47;0.40;99.90
42617;DHT22;28250;52.320;0.360;2023-04-03T02:32:14;0.30;99.90
42617;DHT22;28250;52.320;0.360;2023-04-03T02:34:40;0.10;99.90
42617;DHT22;28250;52.320;0.360;2023-04-03T02:37:07;0.20;99.90
42617;DHT22;28250;52.320;0.360;2023-04-03T02:39:33;0.20;99.90
42617;DHT22;28250;52.320;0.360;2023-04-03T02:42:00;0.20;99.90
42617;DHT22;28250;52.320;0.360;2023-04-03T02:44:27;0.20;99.90
42617;DHT22;28250;52.320;0.360;2023-04-03T02:46:53;0.10;99.90
42617;DHT22;28250;52.320;0.360;2023-04-03T02:49:19;0.20;99.90
42617;DHT22;28250;52.320;0.360;2023-04-03T02:51:45;0.10;99.90
42617;DHT22;28250;52.320;0.360;2023-04-03T02:54:11;0.10;99.90
42617;DHT22;28250;52.320;0.360;2023-04-03T02:56:41;0.00;99.90
42617;DHT22;28250;52.320;0.360;2023-04-03T02:59:07;-0.10;99.90
42617;DHT22;28250;52.320;0.360;2023-04-03T03:01:35;0.00;99.90
42617;DHT22;28250;52.320;0.360;2023-04-03T03:04:01;0.10;99.90
42617;DHT22;28250;52.320;0.360;2023-04-03T03:06:27;0.00;99.90
42617;DHT22;28250;52.320;0.360;2023-04-03T03:08:54;-0.10;99.90
42617;DHT22;28250;52.320;0.360;2023-04-03T03:11:19;0.00;99.90
42617;DHT22;28250;52.320;0.360;2023-04-03T03:13:46;0.00;99.90
42617;DHT22;28250;52.320;0.360;2023-04-03T03:16:12;0.00;99.90
42617;DHT22;28250;52.320;0.360;2023-04-03T03:18:38;-0.10;99.90
42617;DHT22;28250;52.320;0.360;2023-04-03T03:21:04;-0.20;99.90
42617;DHT22;28250;52.320;0.360;2023-04-03T03:23:30;-0.30;99.90
42617;DHT22;28250;52.320;0.360;2023-04-03T03:25:58;-0.30;99.90
42617;DHT22;28250;52.320;0.360;2023-04-03T03:28:26;-0.20;99.90
42617;DHT22;28250;52.320;0.360;2023-04-03T03:30:52;-0.30;99.90
42617;DHT22;28250;52.320;0.360;2023-04-03T03:33:19;-0.30;99.90
42617;DHT22;28250;52.320;0.360;2023-04-03T03:35:45;-0.40;99.90
42617;DHT22;28250;52.320;0.360;2023-04-03T03:38:11;-0.50;99.90
42617;DHT22;28250;52.320;0.360;2023-04-03T03:40:37;-0.40;99.90
42617;DHT22;28250;52.320;0.360;2023-04-03T03:43:04;-0.50;99.90
42617;DHT22;28250;52.320;0.360;2023-04-03T03:45:34;-0.40;99.90
42617;DHT22;28250;52.320;0.360;2023-04-03T03:48:03;-0.20;99.90
42617;DHT22;28250;52.320;0.360;2023-04-03T03:50:30;-0.20;99.90
42617;DHT22;28250;52.320;0.360;2023-04-03T03:52:55;-0.10;99.90
42617;DHT22;28250;52.320;0.360;2023-04-03T03:55:21;-0.20;99.90
42617;DHT22;28250;52.320;0.360;2023-04-03T03:57:51;-0.20;99.90
42617;DHT22;28250;52.320;0.360;2023-04-03T04:00:17;-0.40;99.90
42617;DHT22;28250;52.320;0.360;2023-04-03T04:02:50;-0.50;99.90
42617;DHT22;28250;52.320;0.360;2023-04-03T04:05:19;-0.50;99.90
42617;DHT22;28250;52.320;0.360;2023-04-03T04:07:45;-0.60;99.90
42617;DHT22;28250;52.320;0.360;2023-04-03T04:10:11;-0.60;99.90
42617;DHT22;28250;52.320;0.360;2023-04-03T04:12:39;-0.60;99.90
42617;DHT22;28250;52.320;0.360;2023-04-03T04:15:06;-0.70;99.90
42617;DHT22;28250;52.320;0.360;2023-04-03T04:17:33;-0.70;99.90
42617;DHT22;28250;52.320;0.360;2023-04-03T04:20:02;-0.70;99.90
42617;DHT22;28250;52.320;0.360;2023-04-03T04:22:30;-0.80;99.90
42617;DHT22;28250;52.320;0.360;2023-04-03T04:24:56;-0.80;99.90
42617;DHT22;28250;52.320;0.360;2023-04-03T04:27:22;-0.80;99.90
42617;DHT22;28250;52.320;0.360;2023-04-03T04:29:48;-0.80;99.90
42617;DHT22;28250;52.320;0.360;2023-04-03T04:32:14;-0.80;99.90
42617;DHT22;28250;52.320;0.360;2023-04-03T04:34:40;-0.90;99.90
42617;DHT22;28250;52.320;0.360;2023-04-03T04:37:06;-0.90;99.90
42617;DHT22;28250;52.320;0.360;2023-04-03T04:39:32;-1.00;99.90
42617;DHT22;28250;52.320;0.360;2023-04-03T04:41:58;-1.00;99.90
42617;DHT22;28250;52.320;0.360;2023-04-03T04:44:27;-1.00;99.90
42617;DHT22;28250;52.320;0.360;2023-04-03T04:46:53;-1.00;99.90
42617;DHT22;28250;52.320;0.360;2023-04-03T04:49:20;-1.00;99.90
42617;DHT22;28250;52.320;0.360;2023-04-03T04:51:46;-1.00;99.90
42617;DHT22;28250;52.320;0.360;2023-04-03T04:54:13;-1.00;99.90
42617;DHT22;28250;52.320;0.360;2023-04-03T04:56:39;-1.00;99.90
42617;DHT22;28250;52.320;0.360;2023-04-03T04:59:06;-0.90;99.90
42617;DHT22;28250;52.320;0.360;2023-04-03T05:01:32;-0.50;99.90
42617;DHT22;28250;52.320;0.360;2023-04-03T05:04:06;-0.50;99.90
42617;DHT22;28250;52.320;0.360;2023-04-03T05:06:33;-0.50;99.90
42617;DHT22;28250;52.320;0.360;2023-04-03T05:09:01;-0.50;99.90
42617;DHT22;28250;52.320;0.360;2023-04-03T05:11:29;-0.40;99.90
42617;DHT22;28250;52.320;0.360;2023-04-03T05:13:55;-0.50;99.90
42617;DHT22;28250;52.320;0.360;2023-04-03T05:16:23;-0.40;99.90
42617;DHT22;28250;52.320;0.360;2023-04-03T05:18:49;-0.50;99.90
42617;DHT22;28250;52.320;0.360;2023-04-03T05:21:18;-0.40;99.90
42617;DHT22;28250;52.320;0.360;2023-04-03T05:23:45;-0.40;99.90
42617;DHT22;28250;52.320;0.360;2023-04-03T05:26:11;-0.50;99.90
42617;DHT22;28250;52.320;0.360;2023-04-03T05:28:38;-0.40;99.90
42617;DHT22;28250;52.320;0.360;2023-04-03T05:31:05;-0.30;99.90
42617;DHT22;28250;52.320;0.360;2023-04-03T05:33:35;-0.40;99.90
42617;DHT22;28250;52.320;0.360;2023-04-03T05:36:03;-0.40;99.90
42617;DHT22;28250;52.320;0.360;2023-04-03T05:38:32;-0.40;99.90
42617;DHT22;28250;52.320;0.360;2023-04-03T05:40:58;-0.40;99.90
42617;DHT22;28250;52.320;0.360;2023-04-03T05:43:24;-0.30;99.90
42617;DHT22;28250;52.320;0.360;2023-04-03T05:45:50;-0.30;99.90
42617;DHT22;28250;52.320;0.360;2023-04-03T05:48:18;-0.20;99.90
42617;DHT22;28250;52.320;0.360;2023-04-03T05:50:44;-0.30;99.90
42617;DHT22;28250;52.320;0.360;2023-04-03T05:53:18;-0.20;99.90
42617;DHT22;28250;52.320;0.360;2023-04-03T05:55:47;-0.20;99.90
42617;DHT22;28250;52.320;0.360;2023-04-03T05:58:13;-0.20;99.90
42617;DHT22;28250;52.320;0.360;2023-04-03T06:00:40;-0.20;99.90
42617;DHT22;28250;52.320;0.360;2023-04-03T06:03:06;-0.20;99.90
42617;DHT22;28250;52.320;0.360;2023-04-03T06:05:32;-0.10;99.90
42617;DHT22;28250;52.320;0.360;2023-04-03T06:07:58;0.00;99.90
42617;DHT22;28250;52.320;0.360;2023-04-03T06:10:24;0.10;99.90
42617;DHT22;28250;52.320;0.360;2023-04-03T06:12:50;0.10;99.90
42617;DHT22;28250;52.320;0.360;2023-04-03T06:15:16;0.20;99.90
42617;DHT22;28250;52.320;0.360;2023-04-03T06:17:42;0.30;99.90
42617;DHT22;28250;52.320;0.360;2023-04-03T06:20:08;0.40;99.90
42617;DHT22;28250;52.320;0.360;2023-04-03T06:22:36;0.40;99.90
42617;DHT22;28250;52.320;0.360;2023-04-03T06:25:02;0.50;99.90
42617;DHT22;28250;52.320;0.360;2023-04-03T06:27:28;0.50;99.90
42617;DHT22;28250;52.320;0.360;2023-04-03T06:29:54;0.60;99.90
42617;DHT22;28250;52.320;0.360;2023-04-03T06:32:20;0.70;99.90
42617;DHT22;28250;52.320;0.360;2023-04-03T06:34:46;0.70;99.90
42617;DHT22;28250;52.320;0.360;2023-04-03T06:37:15;0.70;99.90
42617;DHT22;28250;52.320;0.360;2023-04-03T06:39:42;0.70;99.90
42617;DHT22;28250;52.320;0.360;2023-04-03T06:42:08;0.90;99.90
42617;DHT22;28250;52.320;0.360;2023-04-03T06:44:44;1.80;99.90
42617;DHT22;28250;52.320;0.360;2023-04-03T06:47:11;2.70;99.90
42617;DHT22;28250;52.320;0.360;2023-04-03T06:49:38;3.50;99.90
42617;DHT22;28250;52.320;0.360;2023-04-03T06:52:05;4.20;99.90
42617;DHT22;28250;52.320;0.360;2023-04-03T06:54:31;4.50;99.90
42617;DHT22;28250;52.320;0.360;2023-04-03T06:56:57;4.80;99.90
42617;DHT22;28250;52.320;0.360;2023-04-03T06:59:23;5.00;99.90
42617;DHT22;28250;52.320;0.360;2023-04-03T07:01:50;5.30;99.90
42617;DHT22;28250;52.320;0.360;2023-04-03T07:04:15;5.80;99.90
42617;DHT22;28250;52.320;0.360;2023-04-03T07:06:41;6.10;99.90
42617;DHT22;28250;52.320;0.360;2023-04-03T07:09:08;6.20;99.90
42617;DHT22;28250;52.320;0.360;2023-04-03T07:11:36;6.30;99.90
42617;DHT22;28250;52.320;0.360;2023-04-03T07:14:02;6.50;99.90
42617;DHT22;28250;52.320;0.360;2023-04-03T07:16:28;6.60;99.90
42617;DHT22;28250;52.320;0.360;2023-04-03T07:18:56;6.70;99.90
42617;DHT22;28250;52.320;0.360;2023-04-03T07:21:23;6.60;99.90
42617;DHT22;28250;52.320;0.360;2023-04-03T07:23:49;6.70;99.90
42617;DHT22;28250;52.320;0.360;2023-04-03T07:26:15;6.70;99.90
42617;DHT22;28250;52.320;0.360;2023-04-03T07:28:41;7.20;99.90
42617;DHT22;28250;52.320;0.360;2023-04-03T07:31:08;7.10;99.90
42617;DHT22;28250;52.320;0.360;2023-04-03T07:33:39;6.10;99.90
42617;DHT22;28250;52.320;0.360;2023-04-03T07:36:06;6.40;99.90
42617;DHT22;28250;52.320;0.360;2023-04-03T07:38:33;6.20;99.90
42617;DHT22;28250;52.320;0.360;2023-04-03T07:40:59;6.10;99.90
42617;DHT22;28250;52.320;0.360;2023-04-03T07:43:25;6.30;99.90
42617;DHT22;28250;52.320;0.360;2023-04-03T07:45:51;6.00;99.90
42617;DHT22;28250;52.320;0.360;2023-04-03T07:48:22;6.10;99.90
42617;DHT22;28250;52.320;0.360;2023-04-03T07:50:50;6.40;99.90
42617;DHT22;28250;52.320;0.360;2023-04-03T07:53:16;6.30;99.90
42617;DHT22;28250;52.320;0.360;2023-04-03T07:55:42;6.30;99.90
42617;DHT22;28250;52.320;0.360;2023-04-03T07:58:09;6.40;99.90
42617;DHT22;28250;52.320;0.360;2023-04-03T08:00:36;6.30;99.90
42617;DHT22;28250;52.320;0.360;2023-04-03T08:03:02;6.20;99.90
42617;DHT22;28250;52.320;0.360;2023-04-03T08:05:29;6.30;99.90
42617;DHT22;28250;52.320;0.360;2023-04-03T08:07:55;6.40;99.90
42617;DHT22;28250;52.320;0.360;2023-04-03T08:10:21;6.40;99.90
42617;DHT22;28250;52.320;0.360;2023-04-03T08:12:47;6.30;99.90
42617;DHT22;28250;52.320;0.360;2023-04-03T08:15:13;6.20;99.90
42617;DHT22;28250;52.320;0.360;2023-04-03T08:17:38;6.30;99.90
42617;DHT22;28250;52.320;0.360;2023-04-03T08:20:05;6.50;99.90
42617;DHT22;28250;52.320;0.360;2023-04-03T08:22:33;6.80;99.90
42617;DHT22;28250;52.320;0.360;2023-04-03T08:24:59;6.90;99.90
42617;DHT22;28250;52.320;0.360;2023-04-03T08:27:27;6.90;99.90
42617;DHT22;28250;52.320;0.360;2023-04-03T08:29:54;6.80;99.90
42617;DHT22;28250;52.320;0.360;2023-04-03T08:32:21;6.90;99.90
42617;DHT22;28250;52.320;0.360;2023-04-03T08:34:46;7.00;99.90
42617;DHT22;28250;52.320;0.360;2023-04-03T08:37:12;7.10;99.90
42617;DHT22;28250;52.320;0.360;2023-04-03T08:39:38;7.20;99.90
42617;DHT22;28250;52.320;0.360;2023-04-03T08:42:14;7.20;99.90
42617;DHT22;28250;52.320;0.360;2023-04-03T08:44:53;7.40;99.90
42617;DHT22;28250;52.320;0.360;2023-04-03T08:50:14;7.50;99.90
42617;DHT22;28250;52.320;0.360;2023-04-03T08:52:46;7.60;99.90
42617;DHT22;28250;52.320;0.360;2023-04-03T08:57:43;8.00;99.90
42617;DHT22;28250;52.320;0.360;2023-04-03T09:02:43;8.20;99.90
42617;DHT22;28250;52.320;0.360;2023-04-03T09:05:13;8.20;99.90
42617;DHT22;28250;52.320;0.360;2023-04-03T09:07:44;8.30;99.90
42617;DHT22;28250;52.320;0.360;2023-04-03T09:10:12;8.40;99.90
42617;DHT22;28250;52.320;0.360;2023-04-03T09:12:42;8.50;99.90
42617;DHT22;28250;52.320;0.360;2023-04-03T09:15:21;8.60;99.90
42617;DHT22;28250;52.320;0.360;2023-04-03T09:23:28;9.10;99.90
42617;DHT22;28250;52.320;0.360;2023-04-03T09:26:00;9.30;99.90
42617;DHT22;28250;52.320;0.360;2023-04-03T09:28:31;9.40;99.90
42617;DHT22;28250;52.320;0.360;2023-04-03T09:31:00;9.40;99.90
42617;DHT22;28250;52.320;0.360;2023-04-03T09:33:27;9.50;99.90
42617;DHT22;28250;52.320;0.360;2023-04-03T09:35:54;9.80;99.90
42617;DHT22;28250;52.320;0.360;2023-04-03T09:38:21;9.90;99.90
42617;DHT22;28250;52.320;0.360;2023-04-03T09:41:03;10.10;99.90
42617;DHT22;28250;52.320;0.360;2023-04-03T09:43:37;10.00;99.90
42617;DHT22;28250;52.320;0.360;2023-04-03T09:48:55;9.90;99.90
42617;DHT22;28250;52.320;0.360;2023-04-03T09:51:28;9.90;99.90
42617;DHT22;28250;52.320;0.360;2023-04-03T09:53:55;9.90;99.90
42617;DHT22;28250;52.320;0.360;2023-04-03T09:56:24;10.40;99.90
42617;DHT22;28250;52.320;0.360;2023-04-03T10:01:30;10.80;99.90
42617;DHT22;28250;52.320;0.360;2023-04-03T10:06:39;10.70;99.90
42617;DHT22;28250;52.320;0.360;2023-04-03T10:14:36;12.00;99.90
42617;DHT22;28250;52.320;0.360;2023-04-03T10:19:47;12.10;99.90
42617;DHT22;28250;52.320;0.360;2023-04-03T10:22:20;12.10;99.90
42617;DHT22;28250;52.320;0.360;2023-04-03T10:25:29;12.50;99.90
42617;DHT22;28250;52.320;0.360;2023-04-03T10:55:48;13.90;99.90
42617;DHT22;28250;52.320;0.360;2023-04-03T10:58:28;13.80;99.90
42617;DHT22;28250;52.320;0.360;2023-04-03T11:00:57;14.10;99.90
42617;DHT22;28250;52.320;0.360;2023-04-03T11:06:14;14.20;99.90
42617;DHT22;28250;52.320;0.360;2023-04-03T11:11:21;13.90;99.90
42617;DHT22;28250;52.320;0.360;2023-04-03T11:16:28;12.60;99.90
42617;DHT22;28250;52.320;0.360;2023-04-03T11:19:11;12.20;99.90
42617;DHT22;28250;52.320;0.360;2023-04-03T11:21:41;12.70;99.90
42617;DHT22;28250;52.320;0.360;2023-04-03T11:24:14;13.90;99.90
42617;DHT22;28250;52.320;0.360;2023-04-03T11:26:42;14.00;99.90
42617;DHT22;28250;52.320;0.360;2023-04-03T11:29:11;13.40;99.90
42617;DHT22;28250;52.320;0.360;2023-04-03T11:34:26;13.80;99.90
42617;DHT22;28250;52.320;0.360;2023-04-03T11:37:05;12.50;99.90
42617;DHT22;28250;52.320;0.360;2023-04-03T11:39:37;12.30;99.90
42617;DHT22;28250;52.320;0.360;2023-04-03T11:42:14;12.60;99.90
42617;DHT22;28250;52.320;0.360;2023-04-03T11:44:42;12.50;99.90
42617;DHT22;28250;52.320;0.360;2023-04-03T11:47:11;12.10;99.90
42617;DHT22;28250;52.320;0.360;2023-04-03T12:05:49;14.10;99.90
42617;DHT22;28250;52.320;0.360;2023-04-03T12:13:40;15.70;99.90
42617;DHT22;28250;52.320;0.360;2023-04-03T12:21:14;15.70;99.90
42617;DHT22;28250;52.320;0.360;2023-04-03T12:26:48;14.10;99.90
42617;DHT22;28250;52.320;0.360;2023-04-03T12:29:27;14.80;99.90
42617;DHT22;28250;52.320;0.360;2023-04-03T12:43:18;14.70;99.90
42617;DHT22;28250;52.320;0.360;2023-04-03T12:46:04;15.00;99.90
42617;DHT22;28250;52.320;0.360;2023-04-03T12:51:05;15.60;99.90
42617;DHT22;28250;52.320;0.360;2023-04-03T12:53:32;14.80;99.90
42617;DHT22;28250;52.320;0.360;2023-04-03T12:56:18;15.50;99.90
42617;DHT22;28250;52.320;0.360;2023-04-03T12:58:48;16.90;99.90
42617;DHT22;28250;52.320;0.360;2023-04-03T13:01:20;17.30;99.90
42617;DHT22;28250;52.320;0.360;2023-04-03T13:03:57;17.10;99.90
42617;DHT22;28250;52.320;0.360;2023-04-03T13:08:51;17.50;99.90
42617;DHT22;28250;52.320;0.360;2023-04-03T13:11:19;16.50;99.90
42617;DHT22;28250;52.320;0.360;2023-04-03T13:13:56;15.60;99.90
42617;DHT22;28250;52.320;0.360;2023-04-03T13:16:22;15.60;99.90
42617;DHT22;28250;52.320;0.360;2023-04-03T13:18:52;14.20;99.90
42617;DHT22;28250;52.320;0.360;2023-04-03T13:21:23;14.00;99.90
42617;DHT22;28250;52.320;0.360;2023-04-03T13:23:53;14.40;99.90
42617;DHT22;28250;52.320;0.360;2023-04-03T13:26:22;15.30;99.90
42617;DHT22;28250;52.320;0.360;2023-04-03T13:28:48;16.30;99.90
42617;DHT22;28250;52.320;0.360;2023-04-03T13:31:18;15.80;99.90
42617;DHT22;28250;52.320;0.360;2023-04-03T13:34:35;16.20;99.90
42617;DHT22;28250;52.320;0.360;2023-04-03T13:36:38;16.90;99.90
42617;DHT22;28250;52.320;0.360;2023-04-03T13:39:19;17.20;99.90
42617;DHT22;28250;52.320;0.360;2023-04-03T13:41:51;17.00;99.90
42617;DHT22;28250;52.320;0.360;2023-04-03T13:46:48;17.00;99.90
42617;DHT22;28250;52.320;0.360;2023-04-03T13:49:58;15.70;99.90
42617;DHT22;28250;52.320;0.360;2023-04-03T13:54:57;16.40;99.90
42617;DHT22;28250;52.320;0.360;2023-04-03T13:57:25;16.40;99.90
42617;DHT22;28250;52.320;0.360;2023-04-03T13:59:52;15.80;99.90
42617;DHT22;28250;52.320;0.360;2023-04-03T14:02:33;16.70;99.90
42617;DHT22;28250;52.320;0.360;2023-04-03T14:05:00;17.10;99.90
42617;DHT22;28250;52.320;0.360;2023-04-03T14:07:29;17.10;99.90
42617;DHT22;28250;52.320;0.360;2023-04-03T14:09:56;17.20;99.90
42617;DHT22;28250;52.320;0.360;2023-04-03T14:12:26;17.20;99.90
42617;DHT22;28250;52.320;0.360;2023-04-03T14:14:55;16.70;99.90
42617;DHT22;28250;52.320;0.360;2023-04-03T14:17:23;16.90;99.90
42617;DHT22;28250;52.320;0.360;2023-04-03T14:19:50;16.40;99.90
42617;DHT22;28250;52.320;0.360;2023-04-03T14:22:19;16.30;99.90
42617;DHT22;28250;52.320;0.360;2023-04-03T14:24:47;17.10;99.90
42617;DHT22;28250;52.320;0.360;2023-04-03T14:27:22;17.20;99.90
42617;DHT22;28250;52.320;0.360;2023-04-03T14:29:51;17.10;99.90
42617;DHT22;28250;52.320;0.360;2023-04-03T14:32:18;15.30;99.90
42617;DHT22;28250;52.320;0.360;2023-04-03T14:34:46;15.10;99.90
42617;DHT22;28250;52.320;0.360;2023-04-03T14:37:13;14.20;99.90
42617;DHT22;28250;52.320;0.360;2023-04-03T14:39:41;14.60;99.90
42617;DHT22;28250;52.320;0.360;2023-04-03T14:42:12;14.80;99.90
42617;DHT22;28250;52.320;0.360;2023-04-03T14:44:41;14.90;99.90
42617;DHT22;28250;52.320;0.360;2023-04-03T14:47:14;15.40;99.90
42617;DHT22;28250;52.320;0.360;2023-04-03T14:49:44;15.80;99.90
42617;DHT22;28250;52.320;0.360;2023-04-03T14:52:22;16.30;99.90
42617;DHT22;28250;52.320;0.360;2023-04-03T14:54:52;16.10;99.90
42617;DHT22;28250;52.320;0.360;2023-04-03T14:57:19;16.10;99.90
42617;DHT22;28250;52.320;0.360;2023-04-03T14:59:47;16.10;99.90
42617;DHT22;28250;52.320;0.360;2023-04-03T15:02:22;15.90;99.90
42617;DHT22;28250;52.320;0.360;2023-04-03T15:04:49;15.50;99.90
42617;DHT22;28250;52.320;0.360;2023-04-03T15:07:15;14.70;99.90
42617;DHT22;28250;52.320;0.360;2023-04-03T15:09:42;14.90;99.90
42617;DHT22;28250;52.320;0.360;2023-04-03T15:12:08;15.10;99.90
42617;DHT22;28250;52.320;0.360;2023-04-03T15:14:35;15.20;99.90
42617;DHT22;28250;52.320;0.360;2023-04-03T15:17:01;15.30;99.90
42617;DHT22;28250;52.320;0.360;2023-04-03T15:19:29;15.20;99.90
42617;DHT22;28250;52.320;0.360;2023-04-03T15:21:57;15.10;99.90
42617;DHT22;28250;52.320;0.360;2023-04-03T15:24:23;15.30;99.90
42617;DHT22;28250;52.320;0.360;2023-04-03T15:26:48;15.40;99.90
42617;DHT22;28250;52.320;0.360;2023-04-03T15:29:14;15.50;99.90
42617;DHT22;28250;52.320;0.360;2023-04-03T15:31:40;15.30;99.90
42617;DHT22;28250;52.320;0.360;2023-04-03T15:34:06;15.60;99.90
42617;DHT22;28250;52.320;0.360;2023-04-03T15:36:32;15.60;99.90
42617;DHT22;28250;52.320;0.360;2023-04-03T15:38:58;15.20;99.90
42617;DHT22;28250;52.320;0.360;2023-04-03T15:41:24;15.00;99.90
42617;DHT22;28250;52.320;0.360;2023-04-03T15:43:50;14.40;99.90
42617;DHT22;28250;52.320;0.360;2023-04-03T15:46:16;14.10;99.90
42617;DHT22;28250;52.320;0.360;2023-04-03T15:48:42;14.30;99.90
42617;DHT22;28250;52.320;0.360;2023-04-03T15:51:07;14.30;99.90
42617;DHT22;28250;52.320;0.360;2023-04-03T15:53:33;14.40;99.90
42617;DHT22;28250;52.320;0.360;2023-04-03T15:55:59;14.30;99.90
42617;DHT22;28250;52.320;0.360;2023-04-03T15:58:25;14.20;99.90
42617;DHT22;28250;52.320;0.360;2023-04-03T16:00:51;13.50;99.90
42617;DHT22;28250;52.320;0.360;2023-04-03T16:03:18;13.30;99.90
42617;DHT22;28250;52.320;0.360;2023-04-03T16:05:46;13.40;99.90
42617;DHT22;28250;52.320;0.360;2023-04-03T16:08:12;13.80;99.90
42617;DHT22;28250;52.320;0.360;2023-04-03T16:10:38;13.60;99.90
42617;DHT22;28250;52.320;0.360;2023-04-03T16:13:04;13.30;99.90
42617;DHT22;28250;52.320;0.360;2023-04-03T16:15:30;12.70;99.90
42617;DHT22;28250;52.320;0.360;2023-04-03T16:17:58;12.90;99.90
42617;DHT22;28250;52.320;0.360;2023-04-03T16:20:25;13.20;99.90
42617;DHT22;28250;52.320;0.360;2023-04-03T16:22:51;13.00;99.90
42617;DHT22;28250;52.320;0.360;2023-04-03T16:25:17;12.80;99.90
42617;DHT22;28250;52.320;0.360;2023-04-03T16:27:43;12.70;99.90
42617;DHT22;28250;52.320;0.360;2023-04-03T16:30:10;12.50;99.90
42617;DHT22;28250;52.320;0.360;2023-04-03T16:32:37;12.50;99.90
42617;DHT22;28250;52.320;0.360;2023-04-03T16:35:04;12.50;99.90
42617;DHT22;28250;52.320;0.360;2023-04-03T16:37:30;12.20;99.90
42617;DHT22;28250;52.320;0.360;2023-04-03T16:39:56;12.10;99.90
42617;DHT22;28250;52.320;0.360;2023-04-03T16:42:24;12.10;99.90
42617;DHT22;28250;52.320;0.360;2023-04-03T16:44:50;12.10;99.90
42617;DHT22;28250;52.320;0.360;2023-04-03T16:47:16;11.90;99.90
42617;DHT22;28250;52.320;0.360;2023-04-03T16:49:44;11.60;99.90
42617;DHT22;28250;52.320;0.360;2023-04-03T16:52:11;11.20;99.90
42617;DHT22;28250;52.320;0.360;2023-04-03T16:54:37;11.30;99.90
42617;DHT22;28250;52.320;0.360;2023-04-03T16:57:03;11.30;99.90
42617;DHT22;28250;52.320;0.360;2023-04-03T16:59:28;11.40;99.90
42617;DHT22;28250;52.320;0.360;2023-04-03T17:01:54;11.20;99.90
42617;DHT22;28250;52.320;0.360;2023-04-03T17:04:20;11.10;99.90
42617;DHT22;28250;52.320;0.360;2023-04-03T17:06:46;10.80;99.90
42617;DHT22;28250;52.320;0.360;2023-04-03T17:09:12;10.70;99.90
42617;DHT22;28250;52.320;0.360;2023-04-03T17:11:39;10.60;99.90
42617;DHT22;28250;52.320;0.360;2023-04-03T17:14:05;10.50;99.90
42617;DHT22;28250;52.320;0.360;2023-04-03T17:16:32;10.40;99.90
42617;DHT22;28250;52.320;0.360;2023-04-03T17:18:58;10.40;99.90
42617;DHT22;28250;52.320;0.360;2023-04-03T17:21:25;10.40;99.90
42617;DHT22;28250;52.320;0.360;2023-04-03T17:23:54;10.20;99.90
42617;DHT22;28250;52.320;0.360;2023-04-03T17:26:23;10.10;99.90
42617;DHT22;28250;52.320;0.360;2023-04-03T17:28:51;10.00;99.90
42617;DHT22;28250;52.320;0.360;2023-04-03T17:31:17;9.90;99.90
42617;DHT22;28250;52.320;0.360;2023-04-03T17:33:43;9.90;99.90
42617;DHT22;28250;52.320;0.360;2023-04-03T17:36:09;9.70;99.90
42617;DHT22;28250;52.320;0.360;2023-04-03T17:38:35;9.60;99.90
42617;DHT22;28250;52.320;0.360;2023-04-03T17:41:03;9.50;99.90
42617;DHT22;28250;52.320;0.360;2023-04-03T17:43:31;9.50;99.90
42617;DHT22;28250;52.320;0.360;2023-04-03T17:46:01;9.40;99.90
42617;DHT22;28250;52.320;0.360;2023-04-03T17:48:32;9.30;99.90
42617;DHT22;28250;52.320;0.360;2023-04-03T17:50:58;9.10;99.90